UBBB/BAK METAR and TAF weather

Enter ICAO airport designator
Station Type Date Time Source
UBBB METAR 2020/07/10 00:30 UTC NOAA

UBBB 100030Z 32023G33KT CAVOK 27/20 Q1010 R88/CLRD// NOSIG


Station Type Date Time Source
UBBB Decoded METAR 2020/07/10 00:30 UTC NOAA

Baku / Bine Airport, Azerbaijan (UBBB) 40-27N 050-04E -1M
Jul 09, 2020 - 08:30 PM EDT / 2020.07.10 0030 UTC
Wind: from the NW (320 degrees) at 26 MPH (23 KT) gusting to 38 MPH (33 KT):0
Visibility: greater than 7 mile(s):0
Temperature: 80 F (27 C)
Dew Point: 68 F (20 C)
Relative Humidity: 65%
Pressure (altimeter): 29.83 in. Hg (1010 hPa)
ob: UBBB 100030Z 32023G33KT CAVOK 27/20 Q1010 R88/CLRD// NOSIG
cycle: 0

Station Type Date Time Source
UBBB TAF 2020/07/09 18:13 UTC NOAA

TAF UBBB 091708Z 0918/1018 33020G30KT 9999 FEW050CB SCT100 TX30/1010Z TN21/1002Z
BECMG 0920/0922 33024G34KT
TEMPO 1003/1018 35028G38KT

Example: see airport list